Visit the IPS Meteostar Home Page IPSM China Lake Naval Air Facility FORECAST

China Lake, California

77

95

96

87

91

91

91

93

64
64
65
66
66
66
66
67

3 miles away at China Lake Naval Air Facility 5:56 GMT

Weather:

 Clear 

Wind:

S 9 mph

Temperature:

77 ° F

Pressure:

29.88

Dew Point:

37 ° F

Relative Humidity:

23

Feels Like:

77 ° F

Visibility:

10 miles


Aviation Observations:

KNID 290556Z AUTO 19008KT 10SM CLR 25/03 A2992 RMK AO2 SLP109 T02500028 10350 20233 50006 $ =

National Weather Service Forecast:
Indian Wells Valley

indian wells valley-
1000 PM PDT SUN MAY 28 2017

TONIGHT

Clear. Lows 61 to 67. Southwest winds 10 to 20 mph with gusts to around 35 mph.

MEMORIAL DAY

Sunny. Highs 90 to 99. Northwest winds up to 10 mph with gusts to around 25 mph in the morning shifting to the east in the afternoon.

MONDAY NIGHT

Clear. Lows 62 to 68. West winds 10 to 20 mph with gusts to around 35 mph.

TUESDAY

Sunny. Highs 91 to 100. Northwest winds 10 to 15 mph in the morning shifting to the southeast in the afternoon.

TUESDAY NIGHT

Mostly clear. Lows 63 to 69. Southwest winds 10 to 20 mph.

WEDNESDAY AND WEDNESDAY NIGHT

Partly cloudy. Highs 82 to 92. lows 59 to 69.

THURSDAY THROUGH SATURDAY

Mostly clear. Highs 86 to 96. Lows 59 to 69.

SATURDAY NIGHT AND SUNDAY

Clear. Lows 64 to 70. Highs 88 to 98.
temperature / precipitation
inyokern 62 96 63 97 / 0 0 0 0
ridgecrest 64 99 66 99 / 0 0 0 0


Visit the IPS Meteostar Home Page